createdAt,value
2018-08-19T00:00:23.555Z,100974.20
2018-08-19T00:02:57.861Z,100974.41
2018-08-19T00:05:25.754Z,100971.37
2018-08-19T00:07:54.118Z,100965.84
2018-08-19T00:10:40.220Z,100968.58
2018-08-19T00:13:10.020Z,100979.05
2018-08-19T00:15:39.191Z,100975.95
2018-08-19T00:18:09.745Z,100975.98
2018-08-19T00:20:43.072Z,100977.02
2018-08-19T00:23:11.482Z,100980.89
2018-08-19T00:25:42.826Z,100978.71
2018-08-19T00:28:13.011Z,100984.72
2018-08-19T00:30:43.539Z,100980.62
2018-08-19T00:33:13.224Z,100983.93
2018-08-19T00:35:41.223Z,100983.34
2018-08-19T00:38:14.054Z,100982.52
2018-08-19T00:40:46.248Z,100977.43
2018-08-19T00:43:14.173Z,100978.64
2018-08-19T00:45:44.225Z,100983.27
2018-08-19T00:48:23.498Z,100980.47
2018-08-19T00:50:51.732Z,100980.43
2018-08-19T00:53:21.743Z,100976.05
2018-08-19T00:55:52.426Z,100978.45
2018-08-19T00:58:21.245Z,100974.86
2018-08-19T01:00:49.155Z,100979.73
2018-08-19T01:03:17.024Z,100982.77
2018-08-19T01:05:44.827Z,100979.23
2018-08-19T01:08:13.607Z,100979.69
2018-08-19T01:10:41.884Z,100986.92
2018-08-19T01:13:18.203Z,100989.13
2018-08-19T01:15:46.433Z,100991.79
2018-08-19T01:18:14.300Z,100988.47
2018-08-19T01:20:42.255Z,100988.37
2018-08-19T01:23:10.132Z,100990.23
2018-08-19T01:25:38.015Z,100986.92
2018-08-19T01:28:05.908Z,100988.04
2018-08-19T01:30:33.730Z,100989.97
2018-08-19T01:33:01.543Z,100995.25
2018-08-19T01:35:35.064Z,100990.01
2018-08-19T01:40:25.551Z,100998.50
2018-08-19T01:42:53.716Z,100999.89
2018-08-19T01:45:21.518Z,100999.82
2018-08-19T01:47:49.420Z,100998.34
2018-08-19T01:50:17.779Z,101005.98
2018-08-19T01:52:49.219Z,101000.73
2018-08-19T01:55:17.987Z,101005.72
2018-08-19T01:57:47.260Z,101003.83
2018-08-19T02:00:15.858Z,101000.48
2018-08-19T02:02:57.943Z,101006.68
2018-08-19T02:05:26.310Z,101008.94
2018-08-19T02:07:56.979Z,101014.75
2018-08-19T02:10:25.763Z,101011.71
2018-08-19T02:12:55.076Z,101013.73
2018-08-19T02:15:24.270Z,101007.10
2018-08-19T02:17:55.591Z,101009.80
2018-08-19T02:20:30.763Z,101015.06
2018-08-19T02:22:59.732Z,101016.97
2018-08-19T02:25:43.454Z,101019.08
2018-08-19T02:28:11.783Z,101025.44
2018-08-19T02:30:51.090Z,101016.27
2018-08-19T02:33:19.690Z,101018.72
2018-08-19T02:36:06.692Z,101023.84
2018-08-19T02:38:35.603Z,101019.75
2018-08-19T02:41:03.819Z,101020.78
2018-08-19T02:43:31.696Z,101020.16
2018-08-19T02:45:59.608Z,101012.58
2018-08-19T02:48:45.113Z,101020.98
2018-08-19T02:51:14.017Z,101013.34
2018-08-19T02:53:43.618Z,101023.25
2018-08-19T02:56:12.182Z,101018.20
2018-08-19T02:58:41.373Z,101019.96
2018-08-19T03:01:09.747Z,101017.03
2018-08-19T03:03:37.812Z,101021.08
2018-08-19T03:06:07.073Z,101021.14
2018-08-19T03:08:35.268Z,101019.89
2018-08-19T03:11:03.243Z,101018.22
2018-08-19T03:13:31.152Z,101019.58
2018-08-19T03:15:59.080Z,101010.37
2018-08-19T03:18:26.964Z,101012.81
2018-08-19T03:20:54.815Z,101011.13
2018-08-19T03:23:22.692Z,101014.08
2018-08-19T03:25:50.515Z,101009.95
2018-08-19T03:28:18.363Z,101008.52
2018-08-19T03:30:51.783Z,101014.80
2018-08-19T03:33:19.604Z,101010.61
2018-08-19T03:35:47.433Z,101010.88
2018-08-19T03:38:15.291Z,101002.76
2018-08-19T03:40:43.448Z,101003.73
2018-08-19T03:43:11.679Z,101009.78
2018-08-19T03:45:43.774Z,101007.77
2018-08-19T03:48:11.684Z,101004.22
2018-08-19T03:50:39.491Z,100999.97
2018-08-19T03:53:07.364Z,101004.53
2018-08-19T03:55:37.464Z,101004.73
2018-08-19T03:58:07.284Z,101000.95
2018-08-19T04:00:37.431Z,100996.10
2018-08-19T04:03:16.416Z,101006.02
2018-08-19T04:05:49.116Z,101009.06
2018-08-19T04:08:17.017Z,101011.90
2018-08-19T04:10:45.816Z,101008.45
2018-08-19T04:13:29.103Z,101016.45
2018-08-19T04:15:57.895Z,101012.52
2018-08-19T04:18:31.452Z,101016.55
2018-08-19T04:21:01.537Z,101014.51
2018-08-19T04:23:29.931Z,101016.88
2018-08-19T04:25:57.840Z,101023.47
2018-08-19T04:28:25.620Z,101017.14
2018-08-19T04:30:56.325Z,101026.13
2018-08-19T04:33:29.811Z,101018.52
2018-08-19T04:35:57.667Z,101022.16
2018-08-19T04:38:26.924Z,101024.84
2018-08-19T04:40:54.838Z,101022.33
2018-08-19T04:43:29.600Z,101018.83
2018-08-19T04:45:57.545Z,101020.92
2018-08-19T04:48:26.363Z,101016.42
2018-08-19T04:50:55.498Z,101023.22
2018-08-19T04:53:23.348Z,101024.05
2018-08-19T04:55:51.891Z,101027.34
2018-08-19T04:58:19.732Z,101029.30
2018-08-19T05:00:47.507Z,101031.02
2018-08-19T05:03:15.295Z,101030.67
2018-08-19T05:05:43.081Z,101030.50
2018-08-19T05:08:11.974Z,101027.75
2018-08-19T05:10:40.075Z,101033.98
2018-08-19T05:13:08.647Z,101032.69
2018-08-19T05:15:37.471Z,101028.67
2018-08-19T05:18:05.609Z,101024.09
2018-08-19T05:20:33.405Z,101034.50
2018-08-19T05:23:01.287Z,101037.91
2018-08-19T05:25:29.356Z,101038.86
2018-08-19T05:28:02.652Z,101039.12
2018-08-19T05:30:32.223Z,101036.94
2018-08-19T05:33:00.051Z,101048.70
2018-08-19T05:35:28.767Z,101043.82
2018-08-19T05:37:56.944Z,101052.72
2018-08-19T05:40:24.791Z,101050.01
2018-08-19T05:42:52.595Z,101049.34
2018-08-19T05:45:20.423Z,101053.47
2018-08-19T05:48:06.367Z,101045.58
2018-08-19T05:50:34.228Z,101051.78
2018-08-19T05:53:02.107Z,101046.40
2018-08-19T05:55:30.037Z,101039.48
2018-08-19T05:57:57.906Z,101048.00
2018-08-19T06:00:26.785Z,101036.79
2018-08-19T06:02:58.168Z,101040.22
2018-08-19T06:05:26.479Z,101043.63
2018-08-19T06:08:00.008Z,101038.95
2018-08-19T06:10:27.908Z,101045.64
2018-08-19T06:12:56.032Z,101043.69
2018-08-19T06:15:23.975Z,101040.92
2018-08-19T06:17:51.816Z,101039.27
2018-08-19T06:20:19.630Z,101040.65
2018-08-19T06:22:48.167Z,101045.95
2018-08-19T06:25:16.009Z,101039.28
2018-08-19T06:27:45.052Z,101041.83
2018-08-19T06:30:13.727Z,101039.64
2018-08-19T06:32:41.720Z,101038.25
2018-08-19T06:35:09.645Z,101041.02
2018-08-19T06:37:37.611Z,101044.36
2018-08-19T06:40:07.583Z,101039.09
2018-08-19T06:42:36.175Z,101036.61
2018-08-19T06:45:04.776Z,101036.61
2018-08-19T06:47:32.696Z,101037.47
2018-08-19T06:50:01.001Z,101040.23
2018-08-19T06:52:28.920Z,101039.97
2018-08-19T06:54:56.770Z,101039.13
2018-08-19T06:57:28.196Z,101038.03
2018-08-19T06:59:56.350Z,101042.73
2018-08-19T07:02:24.209Z,101042.75
2018-08-19T07:04:52.118Z,101037.74
2018-08-19T07:07:20.228Z,101047.99
2018-08-19T07:09:48.083Z,101048.30
2018-08-19T07:12:18.303Z,101047.99
2018-08-19T07:14:46.746Z,101045.20
2018-08-19T07:17:15.463Z,101044.06
2018-08-19T07:19:43.339Z,101041.80
2018-08-19T07:22:17.273Z,101044.52
2018-08-19T07:24:45.102Z,101037.80
2018-08-19T07:27:13.020Z,101040.56
2018-08-19T07:29:40.892Z,101040.97
2018-08-19T07:32:10.555Z,101039.59
2018-08-19T07:34:38.385Z,101043.67
2018-08-19T07:37:06.376Z,101041.05
2018-08-19T07:39:42.538Z,101038.80
2018-08-19T07:42:10.316Z,101035.83
2018-08-19T07:44:38.248Z,101030.83
2018-08-19T07:47:06.159Z,101032.30
2018-08-19T07:49:34.072Z,101032.91
2018-08-19T07:52:02.302Z,101029.13
2018-08-19T07:54:30.161Z,101037.03
2018-08-19T07:57:03.504Z,101031.36
2018-08-19T07:59:31.329Z,101023.73
2018-08-19T08:01:59.247Z,101029.02
2018-08-19T08:04:31.622Z,101030.41
2018-08-19T08:06:59.455Z,101035.47
2018-08-19T08:09:27.572Z,101034.24
2018-08-19T08:11:55.419Z,101028.40
2018-08-19T08:14:23.165Z,101033.97
2018-08-19T08:16:54.368Z,101026.15
2018-08-19T08:19:23.928Z,101026.81
2018-08-19T08:21:55.780Z,101029.02
2018-08-19T08:24:23.636Z,101023.09
2018-08-19T08:26:55.208Z,101029.42
2018-08-19T08:29:23.108Z,101022.09
2018-08-19T08:31:55.711Z,101027.52
2018-08-19T08:34:25.096Z,101029.20
2018-08-19T08:36:58.219Z,101023.86
2018-08-19T08:39:26.081Z,101025.94
2018-08-19T08:41:54.308Z,101029.91
2018-08-19T08:44:22.089Z,101032.42
2018-08-19T08:46:49.916Z,101026.84
2018-08-19T08:49:17.679Z,101032.56
2018-08-19T08:51:45.577Z,101029.13
2018-08-19T08:54:13.435Z,101023.53
2018-08-19T08:56:41.299Z,101024.14
2018-08-19T08:59:09.195Z,101021.41
2018-08-19T09:01:37.013Z,101024.62
2018-08-19T09:04:04.887Z,101017.46
2018-08-19T09:06:32.756Z,101015.56
2018-08-19T09:09:00.608Z,101020.20
2018-08-19T09:11:28.472Z,101013.31
2018-08-19T09:13:56.366Z,101013.39
2018-08-19T09:16:24.123Z,101010.69
2018-08-19T09:18:52.215Z,101007.01
2018-08-19T09:21:20.079Z,101006.34
2018-08-19T09:23:47.891Z,101005.45
2018-08-19T09:26:15.696Z,101006.44
2018-08-19T09:28:43.680Z,100990.91
2018-08-19T09:31:11.607Z,100995.66
2018-08-19T09:33:39.483Z,100991.00
2018-08-19T09:36:07.400Z,100992.69
2018-08-19T09:38:35.239Z,100990.47
2018-08-19T09:41:03.035Z,100986.63
2018-08-19T09:43:30.808Z,100983.78
2018-08-19T09:45:58.719Z,100979.89
2018-08-19T09:48:26.497Z,100974.53
2018-08-19T09:51:00.800Z,100973.38
2018-08-19T09:53:28.641Z,100961.30
2018-08-19T09:56:02.027Z,100964.27
2018-08-19T09:58:29.841Z,100962.47
2018-08-19T10:01:03.260Z,100953.81
2018-08-19T10:03:31.517Z,100956.77
2018-08-19T10:05:59.415Z,100956.38
2018-08-19T10:08:27.369Z,100953.33
2018-08-19T10:10:55.172Z,100949.71
2018-08-19T10:13:23.059Z,100946.67
2018-08-19T10:15:50.851Z,100941.89
2018-08-19T10:18:18.772Z,100935.75
2018-08-19T10:20:46.592Z,100934.48
2018-08-19T10:23:14.348Z,100937.22
2018-08-19T10:25:42.251Z,100935.23
2018-08-19T10:28:10.159Z,100923.42
2018-08-19T10:30:45.481Z,100926.55
2018-08-19T10:33:13.245Z,100925.27
2018-08-19T10:35:41.149Z,100918.31
2018-08-19T10:38:09.020Z,100918.89
2018-08-19T10:40:36.860Z,100912.23
2018-08-19T10:43:07.934Z,100912.06
2018-08-19T10:45:39.188Z,100903.25
2018-08-19T10:48:11.491Z,100908.73
2018-08-19T10:50:39.375Z,100908.97
2018-08-19T10:53:16.124Z,100905.17
2018-08-19T10:55:45.424Z,100892.14
2018-08-19T10:58:13.370Z,100893.57
2018-08-19T11:00:41.250Z,100885.23
2018-08-19T11:03:15.932Z,100883.73
2018-08-19T11:05:48.208Z,100881.98
2018-08-19T11:08:16.048Z,100880.59
2018-08-19T11:10:43.991Z,100876.95
2018-08-19T11:13:11.886Z,100878.47
2018-08-19T11:15:47.565Z,100870.05
2018-08-19T11:18:39.145Z,100876.33
2018-08-19T11:21:13.210Z,100873.12
2018-08-19T11:23:42.395Z,100867.81
2018-08-19T11:26:10.830Z,100858.11
2018-08-19T11:28:40.852Z,100855.38
2018-08-19T11:31:19.040Z,100853.06
2018-08-19T11:33:47.070Z,100845.05
2018-08-19T11:36:14.984Z,100845.10
2018-08-19T11:38:49.236Z,100842.50
2018-08-19T11:41:17.615Z,100836.69
2018-08-19T11:43:46.516Z,100836.94
2018-08-19T11:46:14.367Z,100834.91
2018-08-19T11:48:42.568Z,100829.61
2018-08-19T11:51:10.439Z,100830.63
2018-08-19T11:53:38.291Z,100826.04
2018-08-19T11:56:06.276Z,100828.53
2018-08-19T11:58:43.562Z,100825.33
2018-08-19T12:01:14.655Z,100815.70
2018-08-19T12:03:55.475Z,100814.20
2018-08-19T12:06:26.647Z,100817.48
2018-08-19T12:08:55.836Z,100823.51
2018-08-19T12:11:28.376Z,100808.00
2018-08-19T12:13:56.206Z,100804.41
2018-08-19T12:16:25.519Z,100810.00
2018-08-19T12:18:53.412Z,100798.59
2018-08-19T12:21:22.247Z,100799.51
2018-08-19T12:23:51.012Z,100787.34
2018-08-19T12:26:20.111Z,100794.97
2018-08-19T12:28:47.992Z,100790.28
2018-08-19T12:31:15.755Z,100788.66
2018-08-19T12:33:43.569Z,100783.10
2018-08-19T12:36:11.380Z,100776.02
2018-08-19T12:38:39.141Z,100771.53
2018-08-19T12:41:07.039Z,100771.58
2018-08-19T12:43:35.617Z,100761.46
2018-08-19T12:46:03.515Z,100766.01
2018-08-19T12:48:31.340Z,100760.94
2018-08-19T12:51:03.707Z,100757.72
2018-08-19T12:53:32.587Z,100759.14
2018-08-19T12:56:00.662Z,100750.77
2018-08-19T12:58:28.534Z,100745.50
2018-08-19T13:00:57.492Z,100751.41
2018-08-19T13:03:27.314Z,100744.08
2018-08-19T13:06:02.620Z,100748.17
2018-08-19T13:08:30.519Z,100737.55
2018-08-19T13:11:03.484Z,100737.16
2018-08-19T13:13:31.836Z,100735.75
2018-08-19T13:16:00.491Z,100731.48
2018-08-19T13:18:33.931Z,100723.55
2018-08-19T13:21:08.555Z,100721.47
2018-08-19T13:23:36.508Z,100720.73
2018-08-19T13:26:04.318Z,100724.03
2018-08-19T13:28:36.290Z,100715.82
2018-08-19T13:31:04.568Z,100716.70
2018-08-19T13:33:32.447Z,100710.94
2018-08-19T13:36:00.332Z,100704.58
2018-08-19T13:38:37.159Z,100711.08
2018-08-19T13:41:07.154Z,100701.59
2018-08-19T13:43:35.979Z,100700.55
2018-08-19T13:46:04.063Z,100694.73
2018-08-19T13:48:32.180Z,100691.44
2018-08-19T13:51:00.022Z,100679.84
2018-08-19T13:53:27.831Z,100684.42
2018-08-19T13:55:55.776Z,100680.45
2018-08-19T13:58:23.644Z,100676.63
2018-08-19T14:00:51.448Z,100673.30
2018-08-19T14:03:19.323Z,100670.83
2018-08-19T14:05:47.124Z,100663.39
2018-08-19T14:08:17.577Z,100664.63
2018-08-19T14:10:45.370Z,100663.08
2018-08-19T14:13:13.140Z,100657.55
2018-08-19T14:15:40.910Z,100660.13
2018-08-19T14:18:08.779Z,100653.52
2018-08-19T14:20:39.328Z,100653.52
2018-08-19T14:23:07.195Z,100655.27
2018-08-19T14:25:34.989Z,100651.45
2018-08-19T14:28:02.832Z,100653.05
2018-08-19T14:30:30.818Z,100647.10
2018-08-19T14:33:00.828Z,100648.77
2018-08-19T14:35:33.191Z,100645.90
2018-08-19T14:38:01.048Z,100640.86
2018-08-19T14:40:29.274Z,100640.02
2018-08-19T14:42:57.028Z,100629.83
2018-08-19T14:45:24.887Z,100623.41
2018-08-19T14:47:53.067Z,100632.63
2018-08-19T14:50:21.047Z,100621.70
2018-08-19T14:52:48.871Z,100622.30
2018-08-19T14:55:17.129Z,100622.01
2018-08-19T14:57:45.284Z,100621.11
2018-08-19T15:00:15.521Z,100612.83
2018-08-19T15:02:43.367Z,100609.80
2018-08-19T15:05:15.115Z,100614.86
2018-08-19T15:07:43.833Z,100611.30
2018-08-19T15:10:19.359Z,100620.09
2018-08-19T15:12:47.251Z,100613.95
2018-08-19T15:15:15.299Z,100615.84
2018-08-19T15:17:48.496Z,100618.15
2018-08-19T15:20:21.689Z,100609.05
2018-08-19T15:22:49.495Z,100608.94
2018-08-19T15:25:17.214Z,100604.75
2018-08-19T15:27:50.626Z,100604.15
2018-08-19T15:30:24.097Z,100594.25
2018-08-19T15:32:52.256Z,100606.24
2018-08-19T15:35:19.716Z,100600.80
2018-08-19T15:37:47.519Z,100598.79
2018-08-19T15:40:31.531Z,100601.57
2018-08-19T15:42:59.357Z,100592.80
2018-08-19T15:45:27.123Z,100588.94
2018-08-19T15:47:54.960Z,100598.30
2018-08-19T15:50:22.786Z,100588.05
2018-08-19T15:52:50.714Z,100591.91
2018-08-19T15:55:18.528Z,100590.88
2018-08-19T15:57:46.343Z,100588.27
2018-08-19T16:00:14.179Z,100577.39
2018-08-19T16:02:41.967Z,100586.47
2018-08-19T16:05:14.455Z,100582.53
2018-08-19T16:07:42.700Z,100583.95
2018-08-19T16:10:12.375Z,100583.22
2018-08-19T16:12:45.067Z,100581.42
2018-08-19T16:15:19.139Z,100576.45
2018-08-19T16:17:47.217Z,100577.98
2018-08-19T16:20:15.118Z,100572.55
2018-08-19T16:22:42.919Z,100577.38
2018-08-19T16:25:10.821Z,100562.79
2018-08-19T16:27:38.660Z,100567.80
2018-08-19T16:30:06.779Z,100556.41
2018-08-19T16:32:40.440Z,100557.91
2018-08-19T16:35:08.311Z,100554.78
2018-08-19T16:37:36.153Z,100550.48
2018-08-19T16:40:07.507Z,100558.28
2018-08-19T16:42:35.718Z,100553.06
2018-08-19T16:45:04.216Z,100553.44
2018-08-19T16:47:32.231Z,100544.61
2018-08-19T16:50:00.106Z,100546.02
2018-08-19T16:52:27.863Z,100549.14
2018-08-19T16:54:55.781Z,100542.00
2018-08-19T16:57:23.637Z,100541.13
2018-08-19T16:59:52.374Z,100550.55
2018-08-19T17:02:20.244Z,100539.20
2018-08-19T17:04:48.036Z,100537.27
2018-08-19T17:07:15.836Z,100543.95
2018-08-19T17:09:43.714Z,100538.87
2018-08-19T17:12:11.571Z,100540.92
2018-08-19T17:14:39.368Z,100538.06
2018-08-19T17:17:07.441Z,100538.03
2018-08-19T17:19:35.224Z,100537.50
2018-08-19T17:22:07.309Z,100531.80
2018-08-19T17:24:37.635Z,100529.81
2018-08-19T17:27:10.906Z,100538.11
2018-08-19T17:29:39.157Z,100536.38
2018-08-19T17:32:07.180Z,100538.55
2018-08-19T17:34:38.555Z,100539.59
2018-08-19T17:37:08.332Z,100537.20
2018-08-19T17:39:36.394Z,100538.11
2018-08-19T17:42:04.544Z,100537.34
2018-08-19T17:44:32.808Z,100541.35
2018-08-19T17:47:01.799Z,100540.61
2018-08-19T17:49:30.683Z,100537.91
2018-08-19T17:51:59.550Z,100539.35
2018-08-19T17:54:29.707Z,100536.68
2018-08-19T17:56:58.729Z,100533.78
2018-08-19T17:59:26.566Z,100536.71
2018-08-19T18:01:54.456Z,100536.48
2018-08-19T18:04:26.027Z,100537.84
2018-08-19T18:06:53.807Z,100545.41
2018-08-19T18:09:21.631Z,100540.52
2018-08-19T18:11:54.821Z,100544.78
2018-08-19T18:14:22.811Z,100543.75
2018-08-19T18:16:50.666Z,100547.66
2018-08-19T18:19:19.891Z,100548.48
2018-08-19T18:21:47.752Z,100544.59
2018-08-19T18:24:15.606Z,100546.28
2018-08-19T18:26:43.344Z,100546.14
2018-08-19T18:29:11.319Z,100543.34
2018-08-19T18:31:39.107Z,100551.45
2018-08-19T18:34:07.974Z,100545.45
2018-08-19T18:36:36.198Z,100547.44
2018-08-19T18:39:08.270Z,100547.70
2018-08-19T18:41:37.543Z,100553.55
2018-08-19T18:44:07.540Z,100545.91
2018-08-19T18:46:35.867Z,100550.70
2018-08-19T18:49:13.027Z,100554.53
2018-08-19T18:51:44.912Z,100556.00
2018-08-19T18:54:24.219Z,100556.92
2018-08-19T18:56:52.180Z,100567.46
2018-08-19T18:59:20.080Z,100562.13
2018-08-19T19:01:47.923Z,100569.66
2018-08-19T19:04:15.820Z,100569.76
2018-08-19T19:06:43.579Z,100577.47
2018-08-19T19:09:11.423Z,100573.38
2018-08-19T19:11:39.293Z,100572.04
2018-08-19T19:14:17.465Z,100579.02
2018-08-19T19:16:49.454Z,100569.94
2018-08-19T19:19:17.294Z,100575.31
2018-08-19T19:21:50.875Z,100576.25
2018-08-19T19:24:24.236Z,100582.52
2018-08-19T19:26:52.103Z,100586.56
2018-08-19T19:29:25.682Z,100586.02
2018-08-19T19:31:55.944Z,100589.05
2018-08-19T19:34:30.897Z,100589.16
2018-08-19T19:36:59.043Z,100587.36
2018-08-19T19:39:27.154Z,100592.41
2018-08-19T19:42:02.519Z,100599.18
2018-08-19T19:44:35.015Z,100596.66
2018-08-19T19:47:03.312Z,100601.50
2018-08-19T19:49:31.248Z,100599.81
2018-08-19T19:52:02.451Z,100598.36
2018-08-19T19:54:32.213Z,100602.92
2018-08-19T19:57:00.604Z,100601.69
2018-08-19T19:59:31.824Z,100598.30
2018-08-19T20:01:59.813Z,100595.06
2018-08-19T20:04:28.200Z,100601.69
2018-08-19T20:06:56.049Z,100603.34
2018-08-19T20:09:24.095Z,100610.27
2018-08-19T20:11:52.136Z,100608.61
2018-08-19T20:14:19.977Z,100610.17
2018-08-19T20:16:47.755Z,100609.61
2018-08-19T20:19:15.573Z,100615.47
2018-08-19T20:21:43.335Z,100615.87
2018-08-19T20:24:11.123Z,100619.62
2018-08-19T20:26:39.027Z,100620.34
2018-08-19T20:29:06.948Z,100619.25
2018-08-19T20:31:34.682Z,100617.61
2018-08-19T20:34:02.457Z,100623.54
2018-08-19T20:36:30.219Z,100617.73
2018-08-19T20:38:58.161Z,100622.08
2018-08-19T20:41:26.008Z,100621.53
2018-08-19T20:43:53.853Z,100620.49
2018-08-19T20:46:21.603Z,100623.23
2018-08-19T20:48:49.438Z,100626.75
2018-08-19T20:51:17.290Z,100627.91
2018-08-19T20:53:45.102Z,100637.36
2018-08-19T20:56:13.036Z,100636.44
2018-08-19T20:58:40.877Z,100629.64
2018-08-19T21:01:15.760Z,100629.37
2018-08-19T21:03:44.001Z,100634.05
2018-08-19T21:06:12.182Z,100635.63
2018-08-19T21:08:40.295Z,100638.16
2018-08-19T21:11:12.603Z,100630.11
2018-08-19T21:13:41.630Z,100640.81
2018-08-19T21:16:09.491Z,100647.69
2018-08-19T21:18:37.251Z,100640.34
2018-08-19T21:21:05.084Z,100646.51
2018-08-19T21:23:32.903Z,100640.02
2018-08-19T21:26:01.477Z,100645.11
2018-08-19T21:28:29.347Z,100640.16
2018-08-19T21:30:57.187Z,100645.36
2018-08-19T21:33:25.035Z,100644.47
2018-08-19T21:35:54.155Z,100651.08
2018-08-19T21:38:22.011Z,100652.80
2018-08-19T21:40:54.543Z,100658.06
2018-08-19T21:43:26.806Z,100656.38
2018-08-19T21:45:54.651Z,100661.02
2018-08-19T21:48:22.491Z,100662.53
2018-08-19T21:50:50.318Z,100662.83
2018-08-19T21:53:18.944Z,100652.77
2018-08-19T21:55:48.116Z,100662.67
2018-08-19T21:58:15.967Z,100661.92
2018-08-19T22:00:47.492Z,100663.77
2018-08-19T22:03:21.759Z,100664.27
2018-08-19T22:05:51.744Z,100658.66
2018-08-19T22:08:21.293Z,100673.41
2018-08-19T22:10:49.099Z,100672.59
2018-08-19T22:13:16.983Z,100676.03
2018-08-19T22:15:45.737Z,100680.20
2018-08-19T22:18:16.269Z,100676.69
2018-08-19T22:21:02.876Z,100678.11
2018-08-19T22:23:43.557Z,100676.05
2018-08-19T22:26:12.724Z,100674.97
2018-08-19T22:28:40.891Z,100678.99
2018-08-19T22:31:23.829Z,100675.55
2018-08-19T22:33:56.804Z,100673.59
2018-08-19T22:36:24.779Z,100674.31
2018-08-19T22:38:53.413Z,100673.36
2018-08-19T22:41:36.647Z,100678.08
2018-08-19T22:44:04.488Z,100687.92
2018-08-19T22:46:32.341Z,100684.09
2018-08-19T22:49:00.217Z,100685.39
2018-08-19T22:51:30.893Z,100684.91
2018-08-19T22:53:58.727Z,100681.10
2018-08-19T22:56:26.514Z,100682.59
2018-08-19T22:58:54.329Z,100691.64
2018-08-19T23:01:22.435Z,100687.87
2018-08-19T23:04:00.166Z,100687.16
2018-08-19T23:06:28.612Z,100684.27
2018-08-19T23:08:56.404Z,100696.46
2018-08-19T23:11:27.168Z,100689.27
2018-08-19T23:14:12.217Z,100692.39
2018-08-19T23:16:40.099Z,100683.09
2018-08-19T23:19:07.901Z,100684.87
2018-08-19T23:21:35.691Z,100685.53
2018-08-19T23:24:03.557Z,100686.90
2018-08-19T23:26:31.455Z,100691.89
2018-08-19T23:28:59.270Z,100685.92
2018-08-19T23:31:27.127Z,100684.53
2018-08-19T23:33:55.044Z,100684.09
2018-08-19T23:36:22.897Z,100684.70
2018-08-19T23:38:50.809Z,100685.70
2018-08-19T23:41:18.669Z,100684.44
2018-08-19T23:43:46.405Z,100684.31
2018-08-19T23:46:14.195Z,100677.01
2018-08-19T23:48:42.039Z,100686.85
2018-08-19T23:51:11.398Z,100687.48
2018-08-19T23:53:39.256Z,100690.41
2018-08-19T23:56:07.141Z,100694.78
2018-08-19T23:58:34.981Z,100686.69
